sensor_id;sensor_type;location;lat;lon;timestamp;P1;durP1;ratioP1;P2;durP2;ratioP2
23400;SDS011;11873;49.300;8.920;2022-07-29T00:00:31;2.80;;;2.60;;
23400;SDS011;11873;49.300;8.920;2022-07-29T00:05:31;3.17;;;2.87;;
23400;SDS011;11873;49.300;8.920;2022-07-29T00:10:32;3.17;;;2.60;;
23400;SDS011;11873;49.300;8.920;2022-07-29T00:15:32;3.13;;;2.87;;
23400;SDS011;11873;49.300;8.920;2022-07-29T00:20:32;3.33;;;3.10;;
23400;SDS011;11873;49.300;8.920;2022-07-29T00:25:33;2.80;;;2.40;;
23400;SDS011;11873;49.300;8.920;2022-07-29T00:30:33;2.93;;;2.73;;
23400;SDS011;11873;49.300;8.920;2022-07-29T00:35:33;2.80;;;2.60;;
23400;SDS011;11873;49.300;8.920;2022-07-29T00:40:33;3.33;;;2.70;;
23400;SDS011;11873;49.300;8.920;2022-07-29T00:45:33;5.30;;;2.90;;
23400;SDS011;11873;49.300;8.920;2022-07-29T00:50:34;4.13;;;2.83;;
23400;SDS011;11873;49.300;8.920;2022-07-29T00:55:34;4.90;;;3.30;;
23400;SDS011;11873;49.300;8.920;2022-07-29T01:00:35;3.77;;;3.37;;
23400;SDS011;11873;49.300;8.920;2022-07-29T01:05:35;3.00;;;2.70;;
23400;SDS011;11873;49.300;8.920;2022-07-29T01:10:35;3.57;;;3.30;;
23400;SDS011;11873;49.300;8.920;2022-07-29T01:15:40;3.43;;;3.17;;
23400;SDS011;11873;49.300;8.920;2022-07-29T01:26:04;4.23;;;2.97;;
23400;SDS011;11873;49.300;8.920;2022-07-29T01:31:10;3.00;;;2.80;;
23400;SDS011;11873;49.300;8.920;2022-07-29T01:36:11;3.67;;;3.10;;
23400;SDS011;11873;49.300;8.920;2022-07-29T01:41:15;3.60;;;3.27;;
23400;SDS011;11873;49.300;8.920;2022-07-29T01:46:19;3.23;;;2.63;;
23400;SDS011;11873;49.300;8.920;2022-07-29T01:51:20;3.70;;;3.00;;
23400;SDS011;11873;49.300;8.920;2022-07-29T01:56:24;3.50;;;3.20;;
23400;SDS011;11873;49.300;8.920;2022-07-29T02:01:24;3.40;;;2.83;;
23400;SDS011;11873;49.300;8.920;2022-07-29T02:06:26;3.07;;;2.60;;
23400;SDS011;11873;49.300;8.920;2022-07-29T02:11:27;2.77;;;2.47;;
23400;SDS011;11873;49.300;8.920;2022-07-29T02:16:30;3.10;;;2.90;;
23400;SDS011;11873;49.300;8.920;2022-07-29T02:21:30;4.57;;;2.70;;
23400;SDS011;11873;49.300;8.920;2022-07-29T02:26:31;2.90;;;2.70;;
23400;SDS011;11873;49.300;8.920;2022-07-29T02:31:33;3.07;;;2.63;;
23400;SDS011;11873;49.300;8.920;2022-07-29T02:36:34;5.27;;;3.30;;
23400;SDS011;11873;49.300;8.920;2022-07-29T02:46:42;3.03;;;2.83;;
23400;SDS011;11873;49.300;8.920;2022-07-29T02:51:44;3.30;;;3.00;;
23400;SDS011;11873;49.300;8.920;2022-07-29T02:56:45;3.63;;;2.60;;
23400;SDS011;11873;49.300;8.920;2022-07-29T03:01:46;3.37;;;3.07;;
23400;SDS011;11873;49.300;8.920;2022-07-29T03:06:46;2.90;;;2.60;;
23400;SDS011;11873;49.300;8.920;2022-07-29T03:11:47;4.60;;;2.80;;
23400;SDS011;11873;49.300;8.920;2022-07-29T03:16:48;2.70;;;2.50;;
23400;SDS011;11873;49.300;8.920;2022-07-29T03:21:49;4.27;;;2.83;;
23400;SDS011;11873;49.300;8.920;2022-07-29T03:26:49;3.57;;;2.87;;
23400;SDS011;11873;49.300;8.920;2022-07-29T03:31:49;3.33;;;2.57;;
23400;SDS011;11873;49.300;8.920;2022-07-29T03:36:49;3.10;;;2.90;;
23400;SDS011;11873;49.300;8.920;2022-07-29T03:41:51;4.30;;;3.00;;
23400;SDS011;11873;49.300;8.920;2022-07-29T03:46:52;3.00;;;2.77;;
23400;SDS011;11873;49.300;8.920;2022-07-29T03:51:53;4.13;;;3.10;;
23400;SDS011;11873;49.300;8.920;2022-07-29T03:56:54;2.80;;;2.60;;
23400;SDS011;11873;49.300;8.920;2022-07-29T04:01:55;3.23;;;2.90;;
23400;SDS011;11873;49.300;8.920;2022-07-29T04:06:55;2.90;;;2.60;;
23400;SDS011;11873;49.300;8.920;2022-07-29T04:11:56;3.00;;;2.80;;
23400;SDS011;11873;49.300;8.920;2022-07-29T04:16:56;2.97;;;2.67;;
23400;SDS011;11873;49.300;8.920;2022-07-29T04:21:56;3.67;;;2.97;;
23400;SDS011;11873;49.300;8.920;2022-07-29T04:26:57;2.80;;;2.60;;
23400;SDS011;11873;49.300;8.920;2022-07-29T04:31:57;4.00;;;2.60;;
23400;SDS011;11873;49.300;8.920;2022-07-29T04:36:57;3.07;;;2.50;;
23400;SDS011;11873;49.300;8.920;2022-07-29T04:41:57;2.83;;;2.63;;
23400;SDS011;11873;49.300;8.920;2022-07-29T04:46:57;3.00;;;2.70;;
23400;SDS011;11873;49.300;8.920;2022-07-29T04:51:58;3.93;;;2.80;;
23400;SDS011;11873;49.300;8.920;2022-07-29T04:56:58;3.67;;;2.77;;
23400;SDS011;11873;49.300;8.920;2022-07-29T05:01:58;4.20;;;2.13;;
23400;SDS011;11873;49.300;8.920;2022-07-29T05:06:58;3.07;;;2.87;;
23400;SDS011;11873;49.300;8.920;2022-07-29T05:11:58;1.97;;;1.87;;
23400;SDS011;11873;49.300;8.920;2022-07-29T05:16:58;2.40;;;2.20;;
23400;SDS011;11873;49.300;8.920;2022-07-29T05:21:59;3.00;;;2.50;;
23400;SDS011;11873;49.300;8.920;2022-07-29T05:26:59;4.97;;;2.20;;
23400;SDS011;11873;49.300;8.920;2022-07-29T05:31:59;3.10;;;2.60;;
23400;SDS011;11873;49.300;8.920;2022-07-29T05:36:59;3.30;;;2.10;;
23400;SDS011;11873;49.300;8.920;2022-07-29T05:41:59;2.30;;;2.10;;
23400;SDS011;11873;49.300;8.920;2022-07-29T05:46:59;3.20;;;2.50;;
23400;SDS011;11873;49.300;8.920;2022-07-29T05:52:00;3.57;;;2.43;;
23400;SDS011;11873;49.300;8.920;2022-07-29T05:57:00;2.73;;;1.97;;
23400;SDS011;11873;49.300;8.920;2022-07-29T06:02:00;2.33;;;2.13;;
23400;SDS011;11873;49.300;8.920;2022-07-29T06:07:00;2.53;;;2.33;;
23400;SDS011;11873;49.300;8.920;2022-07-29T06:12:01;2.67;;;2.07;;
23400;SDS011;11873;49.300;8.920;2022-07-29T06:17:01;5.93;;;1.90;;
23400;SDS011;11873;49.300;8.920;2022-07-29T06:22:01;2.27;;;2.17;;
23400;SDS011;11873;49.300;8.920;2022-07-29T06:27:02;3.83;;;2.67;;
23400;SDS011;11873;49.300;8.920;2022-07-29T06:32:03;5.00;;;2.37;;
23400;SDS011;11873;49.300;8.920;2022-07-29T06:37:07;2.50;;;2.30;;
23400;SDS011;11873;49.300;8.920;2022-07-29T06:42:07;2.87;;;2.27;;
23400;SDS011;11873;49.300;8.920;2022-07-29T06:47:07;3.53;;;2.80;;
23400;SDS011;11873;49.300;8.920;2022-07-29T06:52:07;5.37;;;2.63;;
23400;SDS011;11873;49.300;8.920;2022-07-29T06:57:08;3.90;;;3.13;;
23400;SDS011;11873;49.300;8.920;2022-07-29T07:02:09;7.70;;;3.33;;
23400;SDS011;11873;49.300;8.920;2022-07-29T07:07:09;3.87;;;2.63;;
23400;SDS011;11873;49.300;8.920;2022-07-29T07:12:09;2.80;;;2.60;;
23400;SDS011;11873;49.300;8.920;2022-07-29T07:17:10;3.83;;;2.77;;
23400;SDS011;11873;49.300;8.920;2022-07-29T07:22:10;2.50;;;2.30;;
23400;SDS011;11873;49.300;8.920;2022-07-29T07:27:10;2.37;;;2.13;;
23400;SDS011;11873;49.300;8.920;2022-07-29T07:32:10;3.40;;;3.10;;
23400;SDS011;11873;49.300;8.920;2022-07-29T07:37:11;2.97;;;2.50;;
23400;SDS011;11873;49.300;8.920;2022-07-29T07:42:11;2.83;;;2.63;;
23400;SDS011;11873;49.300;8.920;2022-07-29T07:47:11;3.50;;;3.20;;
23400;SDS011;11873;49.300;8.920;2022-07-29T07:52:12;3.83;;;2.90;;
23400;SDS011;11873;49.300;8.920;2022-07-29T07:57:13;4.87;;;3.30;;
23400;SDS011;11873;49.300;8.920;2022-07-29T08:02:13;3.23;;;3.00;;
23400;SDS011;11873;49.300;8.920;2022-07-29T08:07:13;4.30;;;3.50;;
23400;SDS011;11873;49.300;8.920;2022-07-29T08:12:13;3.73;;;3.00;;
23400;SDS011;11873;49.300;8.920;2022-07-29T08:17:14;4.27;;;3.37;;
23400;SDS011;11873;49.300;8.920;2022-07-29T08:25:39;4.23;;;3.60;;
23400;SDS011;11873;49.300;8.920;2022-07-29T08:30:39;3.97;;;3.60;;
23400;SDS011;11873;49.300;8.920;2022-07-29T08:35:40;3.83;;;3.53;;
23400;SDS011;11873;49.300;8.920;2022-07-29T08:40:40;4.13;;;3.83;;
23400;SDS011;11873;49.300;8.920;2022-07-29T08:45:44;6.07;;;3.73;;
23400;SDS011;11873;49.300;8.920;2022-07-29T08:50:45;5.50;;;3.60;;
23400;SDS011;11873;49.300;8.920;2022-07-29T08:55:49;4.07;;;3.77;;
23400;SDS011;11873;49.300;8.920;2022-07-29T09:00:51;4.67;;;3.83;;
23400;SDS011;11873;49.300;8.920;2022-07-29T09:05:51;5.33;;;3.83;;
23400;SDS011;11873;49.300;8.920;2022-07-29T09:10:51;4.23;;;3.83;;
23400;SDS011;11873;49.300;8.920;2022-07-29T09:15:52;4.13;;;3.67;;
23400;SDS011;11873;49.300;8.920;2022-07-29T09:20:52;4.30;;;4.00;;
23400;SDS011;11873;49.300;8.920;2022-07-29T09:25:52;3.90;;;3.60;;
23400;SDS011;11873;49.300;8.920;2022-07-29T09:30:53;5.43;;;4.50;;
23400;SDS011;11873;49.300;8.920;2022-07-29T09:36:01;5.20;;;4.47;;
23400;SDS011;11873;49.300;8.920;2022-07-29T09:41:02;5.07;;;4.30;;
23400;SDS011;11873;49.300;8.920;2022-07-29T09:46:09;4.43;;;4.03;;
23400;SDS011;11873;49.300;8.920;2022-07-29T09:51:19;4.47;;;4.07;;
23400;SDS011;11873;49.300;8.920;2022-07-29T09:56:19;5.40;;;4.90;;
23400;SDS011;11873;49.300;8.920;2022-07-29T10:01:27;5.47;;;3.67;;
23400;SDS011;11873;49.300;8.920;2022-07-29T10:06:27;4.83;;;4.43;;
23400;SDS011;11873;49.300;8.920;2022-07-29T10:11:27;4.57;;;4.20;;
23400;SDS011;11873;49.300;8.920;2022-07-29T10:16:29;5.63;;;5.13;;
23400;SDS011;11873;49.300;8.920;2022-07-29T10:21:29;7.07;;;5.30;;
23400;SDS011;11873;49.300;8.920;2022-07-29T10:26:30;4.77;;;4.37;;
23400;SDS011;11873;49.300;8.920;2022-07-29T10:31:35;5.47;;;4.97;;
23400;SDS011;11873;49.300;8.920;2022-07-29T10:36:53;4.90;;;4.50;;
23400;SDS011;11873;49.300;8.920;2022-07-29T10:47:20;4.67;;;4.27;;
23400;SDS011;11873;49.300;8.920;2022-07-29T10:52:20;4.40;;;4.03;;
23400;SDS011;11873;49.300;8.920;2022-07-29T10:57:25;4.87;;;4.47;;
23400;SDS011;11873;49.300;8.920;2022-07-29T11:07:36;4.93;;;4.53;;
23400;SDS011;11873;49.300;8.920;2022-07-29T11:22:52;4.20;;;3.90;;
23400;SDS011;11873;49.300;8.920;2022-07-29T11:27:52;4.40;;;4.00;;
23400;SDS011;11873;49.300;8.920;2022-07-29T11:32:53;4.57;;;3.90;;
23400;SDS011;11873;49.300;8.920;2022-07-29T11:38:36;3.77;;;3.47;;
23400;SDS011;11873;49.300;8.920;2022-07-29T11:43:45;4.80;;;4.40;;
23400;SDS011;11873;49.300;8.920;2022-07-29T11:48:37;4.67;;;3.73;;
23400;SDS011;11873;49.300;8.920;2022-07-29T11:53:41;6.20;;;4.68;;
23400;SDS011;11873;49.300;8.920;2022-07-29T11:58:46;4.70;;;4.30;;
23400;SDS011;11873;49.300;8.920;2022-07-29T12:03:46;4.10;;;3.80;;
23400;SDS011;11873;49.300;8.920;2022-07-29T12:08:47;5.73;;;4.43;;
23400;SDS011;11873;49.300;8.920;2022-07-29T12:13:47;4.20;;;3.73;;
23400;SDS011;11873;49.300;8.920;2022-07-29T12:18:57;3.73;;;3.47;;
23400;SDS011;11873;49.300;8.920;2022-07-29T12:23:58;4.67;;;4.10;;
23400;SDS011;11873;49.300;8.920;2022-07-29T12:28:58;3.87;;;3.50;;
23400;SDS011;11873;49.300;8.920;2022-07-29T12:33:58;4.60;;;4.00;;
23400;SDS011;11873;49.300;8.920;2022-07-29T12:38:58;3.73;;;3.43;;
23400;SDS011;11873;49.300;8.920;2022-07-29T12:43:58;3.10;;;2.90;;
23400;SDS011;11873;49.300;8.920;2022-07-29T12:48:59;4.37;;;3.40;;
23400;SDS011;11873;49.300;8.920;2022-07-29T12:54:09;4.00;;;3.70;;
23400;SDS011;11873;49.300;8.920;2022-07-29T12:59:20;5.10;;;3.57;;
23400;SDS011;11873;49.300;8.920;2022-07-29T13:04:30;4.00;;;3.50;;
23400;SDS011;11873;49.300;8.920;2022-07-29T13:19:40;3.07;;;2.87;;
23400;SDS011;11873;49.300;8.920;2022-07-29T13:24:54;4.13;;;3.30;;
23400;SDS011;11873;49.300;8.920;2022-07-29T13:29:55;3.67;;;3.20;;
23400;SDS011;11873;49.300;8.920;2022-07-29T13:34:55;3.77;;;3.47;;
23400;SDS011;11873;49.300;8.920;2022-07-29T13:39:56;3.90;;;3.53;;
23400;SDS011;11873;49.300;8.920;2022-07-29T13:44:57;3.30;;;3.00;;
23400;SDS011;11873;49.300;8.920;2022-07-29T13:49:57;4.43;;;3.10;;
23400;SDS011;11873;49.300;8.920;2022-07-29T13:54:57;3.73;;;3.33;;
23400;SDS011;11873;49.300;8.920;2022-07-29T14:00:04;3.30;;;3.10;;
23400;SDS011;11873;49.300;8.920;2022-07-29T14:05:05;3.83;;;3.20;;
23400;SDS011;11873;49.300;8.920;2022-07-29T14:10:05;5.30;;;3.70;;
23400;SDS011;11873;49.300;8.920;2022-07-29T14:15:06;4.80;;;3.20;;
23400;SDS011;11873;49.300;8.920;2022-07-29T14:20:06;3.90;;;3.27;;
23400;SDS011;11873;49.300;8.920;2022-07-29T14:25:06;3.53;;;3.20;;
23400;SDS011;11873;49.300;8.920;2022-07-29T14:30:07;2.97;;;2.77;;
23400;SDS011;11873;49.300;8.920;2022-07-29T14:35:07;3.93;;;3.37;;
23400;SDS011;11873;49.300;8.920;2022-07-29T14:40:08;3.67;;;3.43;;
23400;SDS011;11873;49.300;8.920;2022-07-29T14:45:09;4.23;;;3.67;;
23400;SDS011;11873;49.300;8.920;2022-07-29T14:50:09;4.30;;;3.70;;
23400;SDS011;11873;49.300;8.920;2022-07-29T14:55:10;3.67;;;3.30;;
23400;SDS011;11873;49.300;8.920;2022-07-29T15:00:10;6.67;;;3.80;;
23400;SDS011;11873;49.300;8.920;2022-07-29T15:05:10;3.80;;;3.00;;
23400;SDS011;11873;49.300;8.920;2022-07-29T15:10:10;5.03;;;2.80;;
23400;SDS011;11873;49.300;8.920;2022-07-29T15:15:11;4.23;;;3.50;;
23400;SDS011;11873;49.300;8.920;2022-07-29T15:20:11;3.33;;;3.03;;
23400;SDS011;11873;49.300;8.920;2022-07-29T15:25:11;3.00;;;2.73;;
23400;SDS011;11873;49.300;8.920;2022-07-29T15:30:11;2.70;;;2.50;;
23400;SDS011;11873;49.300;8.920;2022-07-29T15:35:11;2.67;;;2.47;;
23400;SDS011;11873;49.300;8.920;2022-07-29T15:40:12;2.50;;;2.30;;
23400;SDS011;11873;49.300;8.920;2022-07-29T15:45:12;2.03;;;1.87;;
23400;SDS011;11873;49.300;8.920;2022-07-29T15:50:12;4.13;;;2.10;;
23400;SDS011;11873;49.300;8.920;2022-07-29T15:55:12;5.60;;;2.10;;
23400;SDS011;11873;49.300;8.920;2022-07-29T16:00:12;2.43;;;1.90;;
23400;SDS011;11873;49.300;8.920;2022-07-29T16:05:13;2.83;;;1.90;;
23400;SDS011;11873;49.300;8.920;2022-07-29T16:10:13;4.77;;;2.13;;
23400;SDS011;11873;49.300;8.920;2022-07-29T16:15:13;1.70;;;1.53;;
23400;SDS011;11873;49.300;8.920;2022-07-29T16:20:13;2.10;;;1.90;;
23400;SDS011;11873;49.300;8.920;2022-07-29T16:25:13;4.47;;;2.20;;
23400;SDS011;11873;49.300;8.920;2022-07-29T16:30:13;3.00;;;2.13;;
23400;SDS011;11873;49.300;8.920;2022-07-29T16:35:14;2.10;;;2.00;;
23400;SDS011;11873;49.300;8.920;2022-07-29T16:40:14;3.50;;;2.20;;
23400;SDS011;11873;49.300;8.920;2022-07-29T16:45:15;2.50;;;1.83;;
23400;SDS011;11873;49.300;8.920;2022-07-29T16:50:15;2.20;;;1.67;;
23400;SDS011;11873;49.300;8.920;2022-07-29T16:55:15;2.80;;;1.97;;
23400;SDS011;11873;49.300;8.920;2022-07-29T17:00:16;2.07;;;1.87;;
23400;SDS011;11873;49.300;8.920;2022-07-29T17:05:16;2.10;;;1.97;;
23400;SDS011;11873;49.300;8.920;2022-07-29T17:10:16;1.90;;;1.70;;
23400;SDS011;11873;49.300;8.920;2022-07-29T17:15:17;1.50;;;1.40;;
23400;SDS011;11873;49.300;8.920;2022-07-29T17:20:17;3.30;;;1.97;;
23400;SDS011;11873;49.300;8.920;2022-07-29T17:25:17;1.57;;;1.47;;
23400;SDS011;11873;49.300;8.920;2022-07-29T17:30:17;1.57;;;1.43;;
23400;SDS011;11873;49.300;8.920;2022-07-29T17:35:18;1.70;;;1.60;;
23400;SDS011;11873;49.300;8.920;2022-07-29T17:40:18;2.27;;;1.50;;
23400;SDS011;11873;49.300;8.920;2022-07-29T17:45:18;2.70;;;2.50;;
23400;SDS011;11873;49.300;8.920;2022-07-29T17:50:18;3.37;;;2.63;;
23400;SDS011;11873;49.300;8.920;2022-07-29T17:55:18;2.17;;;1.97;;
23400;SDS011;11873;49.300;8.920;2022-07-29T18:00:19;2.27;;;2.17;;
23400;SDS011;11873;49.300;8.920;2022-07-29T18:05:19;2.17;;;1.97;;
23400;SDS011;11873;49.300;8.920;2022-07-29T18:10:19;2.50;;;1.90;;
23400;SDS011;11873;49.300;8.920;2022-07-29T18:15:19;1.73;;;1.63;;
23400;SDS011;11873;49.300;8.920;2022-07-29T18:20:19;2.57;;;2.37;;
23400;SDS011;11873;49.300;8.920;2022-07-29T18:25:19;2.53;;;2.30;;
23400;SDS011;11873;49.300;8.920;2022-07-29T18:30:20;2.37;;;2.20;;
23400;SDS011;11873;49.300;8.920;2022-07-29T18:35:20;2.40;;;2.20;;
23400;SDS011;11873;49.300;8.920;2022-07-29T18:40:21;3.33;;;2.67;;
23400;SDS011;11873;49.300;8.920;2022-07-29T18:45:21;3.03;;;2.83;;
23400;SDS011;11873;49.300;8.920;2022-07-29T18:50:21;2.40;;;2.20;;
23400;SDS011;11873;49.300;8.920;2022-07-29T18:55:22;2.57;;;2.37;;
23400;SDS011;11873;49.300;8.920;2022-07-29T19:00:22;6.00;;;2.63;;
23400;SDS011;11873;49.300;8.920;2022-07-29T19:05:23;2.40;;;2.30;;
23400;SDS011;11873;49.300;8.920;2022-07-29T19:10:23;2.20;;;2.10;;
23400;SDS011;11873;49.300;8.920;2022-07-29T19:15:23;4.07;;;2.30;;
23400;SDS011;11873;49.300;8.920;2022-07-29T19:20:23;2.37;;;2.17;;
23400;SDS011;11873;49.300;8.920;2022-07-29T19:25:24;2.13;;;1.97;;
23400;SDS011;11873;49.300;8.920;2022-07-29T19:30:24;4.73;;;2.10;;
23400;SDS011;11873;49.300;8.920;2022-07-29T19:35:24;2.23;;;2.03;;
23400;SDS011;11873;49.300;8.920;2022-07-29T19:40:24;2.03;;;1.90;;
23400;SDS011;11873;49.300;8.920;2022-07-29T19:45:25;2.03;;;1.93;;
23400;SDS011;11873;49.300;8.920;2022-07-29T19:50:25;2.40;;;2.20;;
23400;SDS011;11873;49.300;8.920;2022-07-29T19:55:26;2.33;;;2.13;;
23400;SDS011;11873;49.300;8.920;2022-07-29T20:00:26;2.13;;;2.03;;
23400;SDS011;11873;49.300;8.920;2022-07-29T20:05:26;1.97;;;1.80;;
23400;SDS011;11873;49.300;8.920;2022-07-29T20:10:27;2.00;;;1.90;;
23400;SDS011;11873;49.300;8.920;2022-07-29T20:15:27;2.20;;;2.10;;
23400;SDS011;11873;49.300;8.920;2022-07-29T20:20:27;2.80;;;2.40;;
23400;SDS011;11873;49.300;8.920;2022-07-29T20:25:27;2.20;;;2.00;;
23400;SDS011;11873;49.300;8.920;2022-07-29T20:30:27;2.40;;;2.20;;
23400;SDS011;11873;49.300;8.920;2022-07-29T20:35:28;2.40;;;2.20;;
23400;SDS011;11873;49.300;8.920;2022-07-29T20:40:28;2.20;;;2.00;;
23400;SDS011;11873;49.300;8.920;2022-07-29T20:45:28;2.07;;;1.93;;
23400;SDS011;11873;49.300;8.920;2022-07-29T20:50:28;2.10;;;1.77;;
23400;SDS011;11873;49.300;8.920;2022-07-29T20:55:28;2.83;;;2.60;;
23400;SDS011;11873;49.300;8.920;2022-07-29T21:00:28;2.37;;;2.20;;
23400;SDS011;11873;49.300;8.920;2022-07-29T21:05:29;2.80;;;2.50;;
23400;SDS011;11873;49.300;8.920;2022-07-29T21:10:29;2.20;;;2.10;;
23400;SDS011;11873;49.300;8.920;2022-07-29T21:15:29;2.17;;;2.00;;
23400;SDS011;11873;49.300;8.920;2022-07-29T21:20:29;2.40;;;2.20;;
23400;SDS011;11873;49.300;8.920;2022-07-29T21:25:29;2.60;;;2.00;;
23400;SDS011;11873;49.300;8.920;2022-07-29T21:30:30;2.07;;;1.97;;
23400;SDS011;11873;49.300;8.920;2022-07-29T21:35:30;2.40;;;2.20;;
23400;SDS011;11873;49.300;8.920;2022-07-29T21:40:30;3.50;;;2.50;;
23400;SDS011;11873;49.300;8.920;2022-07-29T21:45:30;3.57;;;2.47;;
23400;SDS011;11873;49.300;8.920;2022-07-29T21:50:31;3.27;;;2.73;;
23400;SDS011;11873;49.300;8.920;2022-07-29T21:55:31;2.67;;;2.47;;
23400;SDS011;11873;49.300;8.920;2022-07-29T22:00:31;2.47;;;2.33;;
23400;SDS011;11873;49.300;8.920;2022-07-29T22:05:32;2.20;;;2.10;;
23400;SDS011;11873;49.300;8.920;2022-07-29T22:10:32;3.83;;;2.37;;
23400;SDS011;11873;49.300;8.920;2022-07-29T22:15:32;2.50;;;2.30;;
23400;SDS011;11873;49.300;8.920;2022-07-29T22:20:32;2.23;;;2.13;;
23400;SDS011;11873;49.300;8.920;2022-07-29T22:25:32;2.80;;;2.23;;
23400;SDS011;11873;49.300;8.920;2022-07-29T22:30:32;2.70;;;2.33;;
23400;SDS011;11873;49.300;8.920;2022-07-29T22:35:33;4.33;;;2.20;;
23400;SDS011;11873;49.300;8.920;2022-07-29T22:40:33;2.47;;;2.27;;
23400;SDS011;11873;49.300;8.920;2022-07-29T22:45:33;2.92;;;2.17;;
23400;SDS011;11873;49.300;8.920;2022-07-29T22:50:33;2.30;;;2.20;;
23400;SDS011;11873;49.300;8.920;2022-07-29T22:55:33;2.63;;;2.53;;
23400;SDS011;11873;49.300;8.920;2022-07-29T23:00:34;2.63;;;2.43;;
23400;SDS011;11873;49.300;8.920;2022-07-29T23:05:34;3.07;;;2.73;;
23400;SDS011;11873;49.300;8.920;2022-07-29T23:10:34;2.57;;;2.37;;
23400;SDS011;11873;49.300;8.920;2022-07-29T23:15:34;2.67;;;2.40;;
23400;SDS011;11873;49.300;8.920;2022-07-29T23:20:35;3.90;;;2.80;;
23400;SDS011;11873;49.300;8.920;2022-07-29T23:25:35;2.53;;;2.33;;
23400;SDS011;11873;49.300;8.920;2022-07-29T23:30:35;3.67;;;2.80;;
23400;SDS011;11873;49.300;8.920;2022-07-29T23:35:35;3.40;;;3.10;;
23400;SDS011;11873;49.300;8.920;2022-07-29T23:40:36;2.47;;;2.27;;
23400;SDS011;11873;49.300;8.920;2022-07-29T23:45:36;2.53;;;2.33;;
23400;SDS011;11873;49.300;8.920;2022-07-29T23:50:36;2.70;;;2.50;;
23400;SDS011;11873;49.300;8.920;2022-07-29T23:55:36;2.40;;;2.20;;
